createdAt,value
2018-10-09T00:01:31.779Z,14.77
2018-10-09T00:03:58.946Z,13.73
2018-10-09T00:06:26.356Z,13.37
2018-10-09T00:08:53.532Z,15.90
2018-10-09T00:11:20.739Z,11.40
2018-10-09T00:13:47.930Z,11.80
2018-10-09T00:16:15.130Z,15.57
2018-10-09T00:18:42.343Z,15.33
2018-10-09T00:21:09.518Z,16.57
2018-10-09T00:23:36.726Z,15.17
2018-10-09T00:26:03.934Z,12.83
2018-10-09T00:28:31.110Z,13.30
2018-10-09T00:30:58.310Z,11.20
2018-10-09T00:33:25.479Z,11.63
2018-10-09T00:35:52.666Z,11.90
2018-10-09T00:38:19.885Z,11.60
2018-10-09T00:40:47.091Z,13.73
2018-10-09T00:43:14.286Z,12.20
2018-10-09T00:45:41.462Z,12.87
2018-10-09T00:48:08.686Z,12.97
2018-10-09T00:50:35.891Z,12.00
2018-10-09T00:53:03.086Z,13.30
2018-10-09T00:55:30.310Z,12.23
2018-10-09T00:57:57.498Z,15.23
2018-10-09T01:00:24.684Z,13.37
2018-10-09T01:02:51.925Z,10.40
2018-10-09T01:05:19.084Z,13.00
2018-10-09T01:07:46.287Z,15.33
2018-10-09T01:10:13.482Z,12.83
2018-10-09T01:12:40.678Z,11.93
2018-10-09T01:15:07.885Z,14.17
2018-10-09T01:17:35.094Z,13.13
2018-10-09T01:20:02.497Z,12.27
2018-10-09T01:22:29.674Z,11.87
2018-10-09T01:24:56.879Z,12.10
2018-10-09T01:27:24.077Z,11.03
2018-10-09T01:29:51.299Z,14.80
2018-10-09T01:32:18.536Z,14.37
2018-10-09T01:34:45.759Z,15.80
2018-10-09T01:37:12.966Z,12.10
2018-10-09T01:39:40.151Z,11.87
2018-10-09T01:42:07.361Z,12.03
2018-10-09T01:44:34.562Z,10.90
2018-10-09T01:47:02.198Z,12.60
2018-10-09T01:49:29.419Z,17.43
2018-10-09T01:51:56.597Z,12.43
2018-10-09T01:54:23.802Z,11.40
2018-10-09T01:56:51.075Z,12.17
2018-10-09T01:59:18.258Z,15.83
2018-10-09T02:01:45.466Z,14.47
2018-10-09T02:04:12.639Z,12.30
2018-10-09T02:06:39.840Z,14.10
2018-10-09T02:09:07.588Z,14.20
2018-10-09T02:11:34.762Z,13.07
2018-10-09T02:14:02.306Z,17.40
2018-10-09T02:16:29.573Z,15.80
2018-10-09T02:18:56.743Z,17.63
2018-10-09T02:21:23.926Z,14.83
2018-10-09T02:23:51.118Z,17.37
2018-10-09T02:26:18.321Z,12.30
2018-10-09T02:28:45.484Z,18.23
2018-10-09T02:31:12.680Z,15.30
2018-10-09T02:33:39.935Z,17.63
2018-10-09T02:36:07.092Z,16.43
2018-10-09T02:38:34.271Z,14.43
2018-10-09T02:41:02.529Z,20.30
2018-10-09T02:43:29.726Z,20.63
2018-10-09T02:45:57.850Z,18.93
2018-10-09T02:48:25.372Z,20.43
2018-10-09T02:50:52.561Z,19.20
2018-10-09T02:53:19.759Z,20.20
2018-10-09T02:55:46.979Z,23.20
2018-10-09T02:58:14.190Z,18.77
2018-10-09T03:00:41.394Z,19.27
2018-10-09T03:03:08.602Z,22.70
2018-10-09T03:05:35.814Z,19.43
2018-10-09T03:08:03.036Z,23.07
2018-10-09T03:10:30.232Z,17.17
2018-10-09T03:12:57.419Z,17.70
2018-10-09T03:15:24.631Z,19.23
2018-10-09T03:17:51.823Z,21.43
2018-10-09T03:20:19.022Z,22.13
2018-10-09T03:22:46.195Z,20.90
2018-10-09T03:25:13.399Z,20.47
2018-10-09T03:27:40.606Z,20.10
2018-10-09T03:30:08.546Z,20.73
2018-10-09T03:32:35.766Z,20.50
2018-10-09T03:35:03.204Z,24.30
2018-10-09T03:37:30.402Z,19.80
2018-10-09T03:39:57.608Z,23.80
2018-10-09T03:42:24.802Z,17.90
2018-10-09T03:44:52.010Z,18.07
2018-10-09T03:47:19.214Z,21.20
2018-10-09T03:49:46.436Z,16.40
2018-10-09T03:52:14.362Z,25.27
2018-10-09T03:54:41.566Z,16.37
2018-10-09T03:57:08.774Z,20.27
2018-10-09T03:59:35.958Z,20.20
2018-10-09T04:02:03.157Z,18.43
2018-10-09T04:04:30.332Z,17.67
2018-10-09T04:06:57.586Z,15.17
2018-10-09T04:09:24.794Z,19.10
2018-10-09T04:11:51.959Z,17.63
2018-10-09T04:14:19.174Z,18.40
2018-10-09T04:16:46.348Z,16.73
2018-10-09T04:19:13.567Z,16.00
2018-10-09T04:21:40.742Z,16.90
2018-10-09T04:24:07.934Z,22.60
2018-10-09T04:26:35.139Z,16.60
2018-10-09T04:29:02.683Z,21.10
2018-10-09T04:31:29.891Z,20.20
2018-10-09T04:33:57.083Z,16.57
2018-10-09T04:36:24.403Z,19.13
2018-10-09T04:38:51.603Z,19.90
2018-10-09T04:41:18.774Z,18.57
2018-10-09T04:43:45.973Z,21.00
2018-10-09T04:46:13.155Z,18.30
2018-10-09T04:48:40.371Z,18.87
2018-10-09T04:51:07.578Z,20.57
2018-10-09T04:53:34.758Z,19.43
2018-10-09T04:56:02.346Z,20.50
2018-10-09T04:58:29.518Z,18.50
2018-10-09T05:00:56.701Z,19.60
2018-10-09T05:03:23.955Z,20.20
2018-10-09T05:05:51.114Z,19.97
2018-10-09T05:08:18.313Z,20.33
2018-10-09T05:10:45.490Z,19.20
2018-10-09T05:13:12.674Z,18.03
2018-10-09T05:15:39.846Z,18.67
2018-10-09T05:18:07.026Z,16.30
2018-10-09T05:20:34.190Z,16.77
2018-10-09T05:23:01.631Z,15.40
2018-10-09T05:25:28.797Z,16.50
2018-10-09T05:27:56.018Z,17.83
2018-10-09T05:30:23.217Z,20.17
2018-10-09T05:32:50.499Z,18.13
2018-10-09T05:35:17.730Z,21.57
2018-10-09T05:37:44.998Z,15.40
2018-10-09T05:40:12.262Z,16.80
2018-10-09T05:42:39.458Z,16.67
2018-10-09T05:45:06.669Z,14.00
2018-10-09T05:47:33.836Z,66.20
2018-10-09T05:50:01.722Z,22.43
2018-10-09T05:52:28.916Z,17.80
2018-10-09T05:54:56.063Z,20.57
2018-10-09T05:57:23.260Z,20.43
2018-10-09T05:59:50.438Z,18.63
2018-10-09T06:02:17.621Z,17.07
2018-10-09T06:04:44.836Z,18.47
2018-10-09T06:07:12.022Z,15.27
2018-10-09T06:09:39.210Z,19.00
2018-10-09T06:12:06.415Z,17.33
2018-10-09T06:14:33.611Z,24.90
2018-10-09T06:17:01.076Z,21.77
2018-10-09T06:19:28.247Z,24.70
2018-10-09T06:21:55.456Z,18.60
2018-10-09T06:24:22.644Z,37.17
2018-10-09T06:26:49.826Z,18.03
2018-10-09T06:29:17.028Z,20.97
2018-10-09T06:31:44.194Z,25.70
2018-10-09T06:34:11.393Z,25.50
2018-10-09T06:36:38.673Z,21.87
2018-10-09T06:39:06.555Z,28.13
2018-10-09T06:41:33.884Z,30.53
2018-10-09T06:44:07.594Z,29.00
2018-10-09T06:46:34.763Z,27.83
2018-10-09T06:49:02.139Z,26.00
2018-10-09T06:51:29.336Z,23.90
2018-10-09T06:53:56.779Z,26.83
2018-10-09T06:56:23.694Z,23.10
2018-10-09T06:58:50.866Z,23.60
2018-10-09T07:01:18.140Z,23.80
2018-10-09T07:03:45.318Z,22.80
2018-10-09T07:06:12.531Z,24.77
2018-10-09T07:08:39.699Z,26.20
2018-10-09T07:11:06.945Z,23.80
2018-10-09T07:13:34.130Z,27.50
2018-10-09T07:16:02.389Z,27.17
2018-10-09T07:18:29.607Z,27.67
2018-10-09T07:20:56.771Z,27.83
2018-10-09T07:23:23.975Z,27.60
2018-10-09T07:25:51.151Z,29.87
2018-10-09T07:28:18.369Z,33.23
2018-10-09T07:30:45.545Z,39.43
2018-10-09T07:33:12.764Z,68.03
2018-10-09T07:35:39.939Z,64.37
2018-10-09T07:38:07.163Z,60.20
2018-10-09T07:40:34.343Z,72.87
2018-10-09T07:43:01.575Z,70.20
2018-10-09T07:45:28.784Z,56.80
2018-10-09T07:47:55.938Z,55.00
2018-10-09T07:50:23.128Z,53.10
2018-10-09T07:52:50.514Z,59.50
2018-10-09T07:55:17.634Z,65.23
2018-10-09T07:57:45.607Z,56.33
2018-10-09T08:00:12.843Z,52.93
2018-10-09T08:02:40.055Z,48.63
2018-10-09T08:05:07.247Z,60.00
2018-10-09T08:07:34.442Z,54.10
2018-10-09T08:10:02.490Z,59.03
2018-10-09T08:12:29.663Z,45.83
2018-10-09T08:14:56.904Z,53.50
2018-10-09T08:17:24.099Z,44.60
2018-10-09T08:19:51.267Z,50.43
2018-10-09T08:22:18.483Z,51.43
2018-10-09T08:24:46.658Z,39.07
2018-10-09T08:27:14.426Z,43.10
2018-10-09T08:29:42.347Z,55.37
2018-10-09T08:32:10.592Z,50.83
2018-10-09T08:34:38.364Z,51.00
2018-10-09T08:37:05.710Z,41.67
2018-10-09T08:39:32.954Z,45.87
2018-10-09T08:42:00.299Z,46.43
2018-10-09T08:44:27.510Z,48.10
2018-10-09T08:46:54.732Z,47.90
2018-10-09T08:49:22.267Z,52.70
2018-10-09T08:51:49.499Z,49.43
2018-10-09T08:54:16.658Z,46.63
2018-10-09T08:56:43.830Z,50.70
2018-10-09T08:59:11.834Z,47.37
2018-10-09T09:01:39.567Z,50.70
2018-10-09T09:04:06.766Z,49.37
2018-10-09T09:06:33.978Z,48.57
2018-10-09T09:09:01.154Z,66.13
2018-10-09T09:11:28.938Z,50.80
2018-10-09T09:13:56.233Z,60.27
2018-10-09T09:16:23.427Z,60.00
2018-10-09T09:18:51.734Z,51.37
2018-10-09T09:21:18.948Z,48.30
2018-10-09T09:23:46.309Z,58.00
2018-10-09T09:26:14.521Z,59.27
2018-10-09T09:28:42.116Z,57.83
2018-10-09T09:31:09.341Z,58.13
2018-10-09T09:33:36.807Z,59.47
2018-10-09T09:36:04.651Z,51.60
2018-10-09T09:38:32.643Z,53.83
2018-10-09T09:41:00.676Z,51.57
2018-10-09T09:43:28.321Z,58.60
2018-10-09T09:45:55.605Z,51.87
2018-10-09T09:48:22.703Z,48.60
2018-10-09T09:50:49.906Z,51.97
2018-10-09T09:53:17.103Z,51.60
2018-10-09T09:55:44.291Z,50.97
2018-10-09T09:58:11.524Z,48.60
2018-10-09T10:00:44.225Z,47.97
2018-10-09T10:03:11.403Z,54.60
2018-10-09T10:05:38.590Z,56.80
2018-10-09T10:08:05.759Z,49.30
2018-10-09T10:10:32.949Z,62.87
2018-10-09T10:13:00.143Z,41.03
2018-10-09T10:15:27.308Z,50.43
2018-10-09T10:17:54.495Z,42.97
2018-10-09T10:20:21.686Z,54.60
2018-10-09T10:22:48.879Z,47.57
2018-10-09T10:25:16.039Z,50.60
2018-10-09T10:27:43.264Z,52.13
2018-10-09T10:30:11.067Z,44.10
2018-10-09T10:32:38.281Z,50.70
2018-10-09T10:35:05.460Z,48.13
2018-10-09T10:37:32.623Z,43.73
2018-10-09T10:39:59.822Z,50.03
2018-10-09T10:42:26.983Z,42.67
2018-10-09T10:44:54.159Z,41.07
2018-10-09T10:47:21.327Z,44.00
2018-10-09T10:49:48.510Z,47.87
2018-10-09T10:52:15.681Z,49.10
2018-10-09T10:54:42.934Z,45.80
2018-10-09T10:57:10.105Z,45.30
2018-10-09T10:59:37.315Z,45.30
2018-10-09T11:02:04.527Z,44.50
2018-10-09T11:04:31.712Z,46.07
2018-10-09T11:06:58.880Z,46.67
2018-10-09T11:09:26.061Z,49.77
2018-10-09T11:11:53.223Z,45.30
2018-10-09T11:14:20.415Z,45.27
2018-10-09T11:16:47.598Z,47.90
2018-10-09T11:19:14.763Z,44.07
2018-10-09T11:21:42.016Z,44.10
2018-10-09T11:24:09.130Z,41.20
2018-10-09T11:26:36.319Z,42.17
2018-10-09T11:29:03.515Z,40.67
2018-10-09T11:31:30.679Z,40.60
2018-10-09T11:33:57.890Z,39.57
2018-10-09T11:36:25.082Z,43.47
2018-10-09T11:38:52.242Z,40.80
2018-10-09T11:41:19.439Z,38.17
2018-10-09T11:43:46.616Z,44.60
2018-10-09T11:46:13.823Z,41.93
2018-10-09T11:48:41.020Z,43.80
2018-10-09T11:51:08.187Z,38.43
2018-10-09T11:53:35.360Z,39.93
2018-10-09T11:56:02.902Z,39.97
2018-10-09T11:58:30.671Z,36.87
2018-10-09T12:01:01.686Z,32.77
2018-10-09T12:03:29.352Z,36.43
2018-10-09T12:05:56.599Z,34.03
2018-10-09T12:08:23.797Z,33.40
2018-10-09T12:10:50.984Z,37.40
2018-10-09T12:13:18.181Z,36.40
2018-10-09T12:15:45.402Z,39.13
2018-10-09T12:18:12.599Z,33.60
2018-10-09T12:20:39.789Z,31.70
2018-10-09T12:23:06.961Z,32.90
2018-10-09T12:25:34.138Z,33.20
2018-10-09T12:28:01.650Z,31.20
2018-10-09T12:30:28.798Z,30.17
2018-10-09T12:32:56.002Z,31.57
2018-10-09T12:35:23.148Z,32.20
2018-10-09T12:37:50.331Z,28.57
2018-10-09T12:40:17.515Z,30.63
2018-10-09T12:42:44.665Z,27.90
2018-10-09T12:45:11.853Z,31.60
2018-10-09T12:47:39.016Z,30.10
2018-10-09T12:50:06.206Z,35.63
2018-10-09T12:52:33.378Z,33.23
2018-10-09T12:55:00.522Z,32.50
2018-10-09T12:57:27.725Z,29.07
2018-10-09T12:59:54.880Z,26.33
2018-10-09T13:02:22.059Z,25.93
2018-10-09T13:04:49.244Z,29.00
2018-10-09T13:07:16.447Z,22.93
2018-10-09T13:09:43.624Z,24.40
2018-10-09T13:12:10.803Z,23.03
2018-10-09T13:14:38.206Z,25.27
2018-10-09T13:17:05.454Z,26.70
2018-10-09T13:19:32.599Z,28.70
2018-10-09T13:21:59.925Z,25.20
2018-10-09T13:24:26.935Z,23.43
2018-10-09T13:26:54.111Z,23.50
2018-10-09T13:29:21.287Z,22.07
2018-10-09T13:31:49.488Z,21.33
2018-10-09T13:34:16.684Z,19.97
2018-10-09T13:36:43.828Z,21.17
2018-10-09T13:39:10.982Z,20.53
2018-10-09T13:41:38.183Z,21.10
2018-10-09T13:44:05.352Z,22.03
2018-10-09T13:46:32.491Z,25.50
2018-10-09T13:48:59.675Z,26.43
2018-10-09T13:51:26.856Z,25.93
2018-10-09T13:53:54.035Z,27.17
2018-10-09T13:56:21.195Z,25.33
2018-10-09T13:58:48.378Z,24.20
2018-10-09T14:01:15.538Z,28.27
2018-10-09T14:03:42.723Z,23.80
2018-10-09T14:06:09.929Z,31.90
2018-10-09T14:08:37.030Z,22.07
2018-10-09T14:13:37.923Z,23.67
2018-10-09T14:16:05.108Z,20.37
2018-10-09T14:18:32.289Z,21.13
2018-10-09T14:20:59.468Z,20.93
2018-10-09T14:23:26.643Z,27.00
2018-10-09T14:25:53.806Z,20.00
2018-10-09T14:28:20.988Z,18.83
2018-10-09T14:30:48.165Z,23.33
2018-10-09T14:35:49.031Z,20.07
2018-10-09T14:38:16.218Z,22.73
2018-10-09T14:40:43.390Z,28.60
2018-10-09T14:43:10.571Z,25.07
2018-10-09T14:45:37.789Z,26.03
2018-10-09T14:48:04.939Z,27.97
2018-10-09T14:50:32.151Z,23.73
2018-10-09T14:52:59.335Z,26.37
2018-10-09T14:55:26.518Z,25.73
2018-10-09T14:57:53.792Z,24.03
2018-10-09T15:00:20.985Z,24.83
2018-10-09T15:02:48.138Z,31.87
2018-10-09T15:05:15.291Z,25.97
2018-10-09T15:07:42.481Z,25.70
2018-10-09T15:10:09.663Z,24.80
2018-10-09T15:12:36.838Z,24.00
2018-10-09T15:15:04.046Z,24.57
2018-10-09T15:17:31.293Z,20.53
2018-10-09T15:19:58.399Z,21.83
2018-10-09T15:22:25.577Z,22.07
2018-10-09T15:24:52.723Z,22.97
2018-10-09T15:27:19.904Z,22.07
2018-10-09T15:29:47.154Z,21.83
2018-10-09T15:32:14.331Z,22.20
2018-10-09T15:34:41.519Z,24.50
2018-10-09T15:37:08.681Z,22.53
2018-10-09T15:39:35.896Z,20.43
2018-10-09T15:42:03.013Z,21.17
2018-10-09T15:44:30.200Z,23.60
2018-10-09T15:46:57.441Z,21.03
2018-10-09T15:49:24.618Z,21.70
2018-10-09T15:51:51.971Z,22.13
2018-10-09T15:54:19.142Z,20.27
2018-10-09T15:56:46.430Z,23.63
2018-10-09T15:59:13.603Z,28.43
2018-10-09T16:01:40.812Z,27.47
2018-10-09T16:04:08.102Z,21.50
2018-10-09T16:06:35.178Z,21.33
2018-10-09T16:09:02.844Z,20.23
2018-10-09T16:11:30.370Z,20.13
2018-10-09T16:13:57.571Z,19.20
2018-10-09T16:16:24.726Z,20.37
2018-10-09T16:18:51.890Z,19.40
2018-10-09T16:21:19.063Z,20.10
2018-10-09T16:23:46.240Z,18.27
2018-10-09T16:26:13.414Z,20.23
2018-10-09T16:28:40.606Z,29.50
2018-10-09T16:31:07.782Z,23.97
2018-10-09T16:33:34.970Z,22.23
2018-10-09T16:36:03.122Z,22.00
2018-10-09T16:38:30.275Z,22.03
2018-10-09T16:40:57.441Z,23.30
2018-10-09T16:43:24.622Z,22.97
2018-10-09T16:45:51.806Z,28.93
2018-10-09T16:48:18.974Z,23.37
2018-10-09T16:50:46.142Z,26.50
2018-10-09T16:53:13.327Z,27.63
2018-10-09T16:55:40.518Z,26.60
2018-10-09T16:58:07.703Z,22.53
2018-10-09T17:00:34.894Z,22.47
2018-10-09T17:03:02.266Z,24.90
2018-10-09T17:05:29.445Z,21.27
2018-10-09T17:07:56.590Z,28.33
2018-10-09T17:10:23.771Z,22.50
2018-10-09T17:12:51.135Z,22.00
2018-10-09T17:15:18.348Z,23.20
2018-10-09T17:17:45.499Z,24.30
2018-10-09T17:20:12.758Z,23.50
2018-10-09T17:22:39.927Z,22.47
2018-10-09T17:25:07.093Z,24.50
2018-10-09T17:27:34.275Z,28.60
2018-10-09T17:30:01.435Z,24.77
2018-10-09T17:32:28.668Z,22.57
2018-10-09T17:34:55.938Z,26.67
2018-10-09T17:37:23.199Z,23.40
2018-10-09T17:39:50.380Z,24.87
2018-10-09T17:42:17.683Z,23.40
2018-10-09T17:44:44.782Z,25.20
2018-10-09T17:47:11.947Z,23.47
2018-10-09T17:49:40.414Z,26.07
2018-10-09T17:52:07.843Z,26.37
2018-10-09T17:54:35.130Z,26.67
2018-10-09T17:57:02.782Z,27.30
2018-10-09T17:59:29.953Z,25.70
2018-10-09T18:01:57.402Z,25.40
2018-10-09T18:04:24.649Z,25.03
2018-10-09T18:06:51.822Z,24.07
2018-10-09T18:09:19.001Z,21.90
2018-10-09T18:11:46.182Z,26.03
2018-10-09T18:14:13.384Z,24.17
2018-10-09T18:16:40.567Z,24.12
2018-10-09T18:19:08.182Z,23.70
2018-10-09T18:21:35.943Z,25.40
2018-10-09T18:24:03.290Z,22.03
2018-10-09T18:26:30.494Z,24.60
2018-10-09T18:28:57.664Z,25.80
2018-10-09T18:31:24.851Z,24.87
2018-10-09T18:33:52.125Z,26.00
2018-10-09T18:36:19.438Z,25.77
2018-10-09T18:38:46.596Z,26.33
2018-10-09T18:41:13.824Z,26.37
2018-10-09T18:43:40.957Z,24.53
2018-10-09T18:46:08.134Z,27.37
2018-10-09T18:48:35.296Z,28.87
2018-10-09T18:51:02.953Z,25.93
2018-10-09T18:53:30.116Z,28.83
2018-10-09T18:55:57.294Z,27.03
2018-10-09T18:58:24.454Z,25.20
2018-10-09T19:00:51.604Z,26.27
2018-10-09T19:03:18.796Z,26.57
2018-10-09T19:05:45.950Z,26.03
2018-10-09T19:08:13.134Z,26.23
2018-10-09T19:10:40.615Z,30.07
2018-10-09T19:13:07.791Z,31.47
2018-10-09T19:15:34.947Z,32.90
2018-10-09T19:18:02.580Z,28.03
2018-10-09T19:20:29.806Z,26.40
2018-10-09T19:22:56.981Z,28.47
2018-10-09T19:25:24.139Z,29.60
2018-10-09T19:27:51.323Z,26.47
2018-10-09T19:30:18.683Z,28.33
2018-10-09T19:32:45.964Z,26.10
2018-10-09T19:35:13.055Z,31.67
2018-10-09T19:37:40.229Z,27.70
2018-10-09T19:40:07.402Z,25.40
2018-10-09T19:42:34.586Z,24.93
2018-10-09T19:45:02.315Z,25.80
2018-10-09T19:47:33.818Z,28.70
2018-10-09T19:50:01.392Z,26.00
2018-10-09T19:52:28.586Z,26.40
2018-10-09T19:54:55.762Z,29.00
2018-10-09T19:57:22.945Z,24.17
2018-10-09T19:59:50.116Z,26.70
2018-10-09T20:02:17.267Z,25.07
2018-10-09T20:04:44.444Z,26.33
2018-10-09T20:07:11.618Z,24.53
2018-10-09T20:09:38.802Z,28.10
2018-10-09T20:12:05.971Z,31.03
2018-10-09T20:14:33.192Z,26.27
2018-10-09T20:17:00.349Z,27.83
2018-10-09T20:19:27.507Z,24.60
2018-10-09T20:21:54.688Z,26.77
2018-10-09T20:24:21.838Z,23.90
2018-10-09T20:26:48.990Z,33.40
2018-10-09T20:29:16.190Z,27.80
2018-10-09T20:31:43.347Z,28.70
2018-10-09T20:34:10.523Z,36.40
2018-10-09T20:36:37.684Z,28.77
2018-10-09T20:39:05.751Z,30.87
2018-10-09T20:41:32.902Z,27.27
2018-10-09T20:44:00.178Z,30.60
2018-10-09T20:46:27.339Z,26.50
2018-10-09T20:48:54.509Z,27.37
2018-10-09T20:51:21.655Z,29.10
2018-10-09T20:53:48.806Z,25.97
2018-10-09T20:56:15.994Z,26.50
2018-10-09T20:58:43.146Z,23.67
2018-10-09T21:01:10.332Z,22.67
2018-10-09T21:03:37.503Z,24.27
2018-10-09T21:06:04.686Z,27.63
2018-10-09T21:08:31.862Z,23.37
2018-10-09T21:10:59.006Z,22.77
2018-10-09T21:13:26.204Z,21.83
2018-10-09T21:15:53.382Z,22.03
2018-10-09T21:18:20.562Z,20.27
2018-10-09T21:20:47.750Z,20.43
2018-10-09T21:23:14.930Z,19.20
2018-10-09T21:25:42.096Z,20.53
2018-10-09T21:28:09.346Z,19.17
2018-10-09T21:30:36.512Z,21.43
2018-10-09T21:33:03.687Z,19.73
2018-10-09T21:35:30.907Z,19.10
2018-10-09T21:37:58.090Z,18.90
2018-10-09T21:40:25.283Z,20.13
2018-10-09T21:42:52.462Z,20.70
2018-10-09T21:45:19.611Z,18.10
2018-10-09T21:47:52.188Z,18.40
2018-10-09T21:50:19.370Z,18.63
2018-10-09T21:52:46.516Z,21.30
2018-10-09T21:55:13.767Z,19.00
2018-10-09T21:57:41.095Z,17.90
2018-10-09T22:00:10.123Z,17.60
2018-10-09T22:02:37.646Z,18.20
2018-10-09T22:05:06.146Z,20.10
2018-10-09T22:07:33.307Z,17.57
2018-10-09T22:10:00.510Z,20.50
2018-10-09T22:12:27.663Z,20.50
2018-10-09T22:14:54.864Z,18.60
2018-10-09T22:17:22.009Z,17.57
2018-10-09T22:19:49.191Z,20.63
2018-10-09T22:22:16.371Z,15.80
2018-10-09T22:24:43.555Z,18.37
2018-10-09T22:27:10.723Z,15.40
2018-10-09T22:29:37.900Z,17.13
2018-10-09T22:32:05.052Z,17.50
2018-10-09T22:34:32.238Z,17.73
2018-10-09T22:36:59.507Z,16.87
2018-10-09T22:39:26.709Z,20.00
2018-10-09T22:41:53.884Z,18.27
2018-10-09T22:44:21.071Z,17.13
2018-10-09T22:46:48.219Z,17.80
2018-10-09T22:49:15.422Z,18.67
2018-10-09T22:51:42.635Z,17.67
2018-10-09T22:54:09.774Z,17.30
2018-10-09T22:56:36.955Z,17.73
2018-10-09T22:59:04.128Z,18.37
2018-10-09T23:01:31.299Z,19.53
2018-10-09T23:03:58.459Z,17.00
2018-10-09T23:06:25.643Z,17.40
2018-10-09T23:08:52.824Z,16.60
2018-10-09T23:11:19.977Z,20.13
2018-10-09T23:13:47.176Z,17.47
2018-10-09T23:16:14.317Z,16.20
2018-10-09T23:18:41.509Z,15.60
2018-10-09T23:21:08.653Z,18.83
2018-10-09T23:23:35.835Z,17.03
2018-10-09T23:26:03.021Z,16.80
2018-10-09T23:28:30.195Z,17.60
2018-10-09T23:30:57.375Z,22.23
2018-10-09T23:33:24.562Z,20.90
2018-10-09T23:35:51.746Z,17.47
2018-10-09T23:38:18.916Z,17.10
2018-10-09T23:40:46.088Z,22.37
2018-10-09T23:43:13.346Z,19.90
2018-10-09T23:45:40.465Z,20.07
2018-10-09T23:48:08.719Z,17.17
2018-10-09T23:50:36.668Z,20.00
2018-10-09T23:53:03.922Z,17.10
2018-10-09T23:55:31.094Z,19.87
2018-10-09T23:57:58.288Z,16.43
